sensor_id;sensor_type;location;lat;lon;timestamp;temperature;humidity
22996;DHT22;11664;49.774;8.650;2023-09-30T00:01:53;16.00;99.90
22996;DHT22;11664;49.774;8.650;2023-09-30T00:04:19;16.00;99.90
22996;DHT22;11664;49.774;8.650;2023-09-30T00:06:45;15.80;99.90
22996;DHT22;11664;49.774;8.650;2023-09-30T00:09:10;15.80;99.90
22996;DHT22;11664;49.774;8.650;2023-09-30T00:11:37;15.80;99.90
22996;DHT22;11664;49.774;8.650;2023-09-30T00:14:03;15.80;99.90
22996;DHT22;11664;49.774;8.650;2023-09-30T00:16:29;15.70;99.90
22996;DHT22;11664;49.774;8.650;2023-09-30T00:18:56;15.60;99.90
22996;DHT22;11664;49.774;8.650;2023-09-30T00:21:23;15.60;99.90
22996;DHT22;11664;49.774;8.650;2023-09-30T00:23:49;15.60;99.90
22996;DHT22;11664;49.774;8.650;2023-09-30T00:26:14;15.50;99.90
22996;DHT22;11664;49.774;8.650;2023-09-30T00:28:40;15.50;99.90
22996;DHT22;11664;49.774;8.650;2023-09-30T00:31:08;15.50;99.90
22996;DHT22;11664;49.774;8.650;2023-09-30T00:33:35;15.50;99.90
22996;DHT22;11664;49.774;8.650;2023-09-30T00:36:08;15.50;99.90
22996;DHT22;11664;49.774;8.650;2023-09-30T00:38:34;15.40;99.90
22996;DHT22;11664;49.774;8.650;2023-09-30T00:41:00;15.30;99.90
22996;DHT22;11664;49.774;8.650;2023-09-30T00:43:26;15.30;99.90
22996;DHT22;11664;49.774;8.650;2023-09-30T00:46:01;15.30;99.90
22996;DHT22;11664;49.774;8.650;2023-09-30T00:48:28;15.30;99.90
22996;DHT22;11664;49.774;8.650;2023-09-30T00:50:54;15.30;99.90
22996;DHT22;11664;49.774;8.650;2023-09-30T00:53:21;15.30;99.90
22996;DHT22;11664;49.774;8.650;2023-09-30T00:55:46;15.40;99.90
22996;DHT22;11664;49.774;8.650;2023-09-30T00:58:12;15.40;99.90
22996;DHT22;11664;49.774;8.650;2023-09-30T01:00:38;15.40;99.90
22996;DHT22;11664;49.774;8.650;2023-09-30T01:03:04;15.50;99.90
22996;DHT22;11664;49.774;8.650;2023-09-30T01:05:30;15.50;99.90
22996;DHT22;11664;49.774;8.650;2023-09-30T01:07:56;15.50;99.90
22996;DHT22;11664;49.774;8.650;2023-09-30T01:10:22;15.60;99.90
22996;DHT22;11664;49.774;8.650;2023-09-30T01:12:47;15.60;99.90
22996;DHT22;11664;49.774;8.650;2023-09-30T01:15:13;15.60;99.90
22996;DHT22;11664;49.774;8.650;2023-09-30T01:17:38;15.60;99.90
22996;DHT22;11664;49.774;8.650;2023-09-30T01:20:04;15.60;99.90
22996;DHT22;11664;49.774;8.650;2023-09-30T01:22:32;15.60;99.90
22996;DHT22;11664;49.774;8.650;2023-09-30T01:24:58;15.60;99.90
22996;DHT22;11664;49.774;8.650;2023-09-30T01:27:23;15.60;99.90
22996;DHT22;11664;49.774;8.650;2023-09-30T01:29:50;15.60;99.90
22996;DHT22;11664;49.774;8.650;2023-09-30T01:32:16;15.60;99.90
22996;DHT22;11664;49.774;8.650;2023-09-30T01:34:42;15.60;99.90
22996;DHT22;11664;49.774;8.650;2023-09-30T01:37:07;15.60;99.90
22996;DHT22;11664;49.774;8.650;2023-09-30T01:39:33;15.60;99.90
22996;DHT22;11664;49.774;8.650;2023-09-30T01:41:59;15.50;99.90
22996;DHT22;11664;49.774;8.650;2023-09-30T01:44:25;15.50;99.90
22996;DHT22;11664;49.774;8.650;2023-09-30T01:46:51;15.50;99.90
22996;DHT22;11664;49.774;8.650;2023-09-30T01:49:17;15.60;99.90
22996;DHT22;11664;49.774;8.650;2023-09-30T01:51:43;15.50;99.90
22996;DHT22;11664;49.774;8.650;2023-09-30T01:54:09;15.50;99.90
22996;DHT22;11664;49.774;8.650;2023-09-30T01:56:36;15.50;99.90
22996;DHT22;11664;49.774;8.650;2023-09-30T01:59:01;15.60;99.90
22996;DHT22;11664;49.774;8.650;2023-09-30T02:01:27;15.60;99.90
22996;DHT22;11664;49.774;8.650;2023-09-30T02:03:53;15.70;99.90
22996;DHT22;11664;49.774;8.650;2023-09-30T02:06:18;15.70;99.90
22996;DHT22;11664;49.774;8.650;2023-09-30T02:08:44;15.80;99.90
22996;DHT22;11664;49.774;8.650;2023-09-30T02:11:10;15.80;99.90
22996;DHT22;11664;49.774;8.650;2023-09-30T02:13:36;15.70;99.90
22996;DHT22;11664;49.774;8.650;2023-09-30T02:16:01;15.70;99.90
22996;DHT22;11664;49.774;8.650;2023-09-30T02:18:27;15.60;99.90
22996;DHT22;11664;49.774;8.650;2023-09-30T02:20:53;15.60;99.90
22996;DHT22;11664;49.774;8.650;2023-09-30T02:23:19;15.50;99.90
22996;DHT22;11664;49.774;8.650;2023-09-30T02:25:44;15.40;99.90
22996;DHT22;11664;49.774;8.650;2023-09-30T02:28:10;15.40;99.90
22996;DHT22;11664;49.774;8.650;2023-09-30T02:30:36;15.40;99.90
22996;DHT22;11664;49.774;8.650;2023-09-30T02:33:02;15.50;99.90
22996;DHT22;11664;49.774;8.650;2023-09-30T02:35:28;15.40;99.90
22996;DHT22;11664;49.774;8.650;2023-09-30T02:37:54;15.50;99.90
22996;DHT22;11664;49.774;8.650;2023-09-30T02:40:20;15.40;99.90
22996;DHT22;11664;49.774;8.650;2023-09-30T02:42:45;15.40;99.90
22996;DHT22;11664;49.774;8.650;2023-09-30T02:45:12;15.40;99.90
22996;DHT22;11664;49.774;8.650;2023-09-30T02:47:39;15.40;99.90
22996;DHT22;11664;49.774;8.650;2023-09-30T02:50:08;15.50;99.90
22996;DHT22;11664;49.774;8.650;2023-09-30T02:52:36;15.40;99.90
22996;DHT22;11664;49.774;8.650;2023-09-30T02:55:02;15.50;99.90
22996;DHT22;11664;49.774;8.650;2023-09-30T02:57:28;15.40;99.90
22996;DHT22;11664;49.774;8.650;2023-09-30T02:59:53;15.40;99.90
22996;DHT22;11664;49.774;8.650;2023-09-30T03:02:22;15.40;99.90
22996;DHT22;11664;49.774;8.650;2023-09-30T03:04:48;15.40;99.90
22996;DHT22;11664;49.774;8.650;2023-09-30T03:07:15;15.30;99.90
22996;DHT22;11664;49.774;8.650;2023-09-30T03:09:41;15.30;99.90
22996;DHT22;11664;49.774;8.650;2023-09-30T03:12:07;15.30;99.90
22996;DHT22;11664;49.774;8.650;2023-09-30T03:14:34;15.30;99.90
22996;DHT22;11664;49.774;8.650;2023-09-30T03:16:59;15.30;99.90
22996;DHT22;11664;49.774;8.650;2023-09-30T03:19:25;15.30;99.90
22996;DHT22;11664;49.774;8.650;2023-09-30T03:21:51;15.30;99.90
22996;DHT22;11664;49.774;8.650;2023-09-30T03:24:16;15.20;99.90
22996;DHT22;11664;49.774;8.650;2023-09-30T03:26:42;15.10;99.90
22996;DHT22;11664;49.774;8.650;2023-09-30T03:29:08;15.20;99.90
22996;DHT22;11664;49.774;8.650;2023-09-30T03:31:36;15.00;99.90
22996;DHT22;11664;49.774;8.650;2023-09-30T03:34:02;14.80;99.90
22996;DHT22;11664;49.774;8.650;2023-09-30T03:36:29;14.70;99.90
22996;DHT22;11664;49.774;8.650;2023-09-30T03:38:55;14.60;99.90
22996;DHT22;11664;49.774;8.650;2023-09-30T03:41:21;14.70;99.90
22996;DHT22;11664;49.774;8.650;2023-09-30T03:43:46;14.50;99.90
22996;DHT22;11664;49.774;8.650;2023-09-30T03:46:14;14.40;99.90
22996;DHT22;11664;49.774;8.650;2023-09-30T03:48:41;14.40;99.90
22996;DHT22;11664;49.774;8.650;2023-09-30T03:51:17;14.30;99.90
22996;DHT22;11664;49.774;8.650;2023-09-30T03:53:46;14.20;99.90
22996;DHT22;11664;49.774;8.650;2023-09-30T03:56:11;14.20;99.90
22996;DHT22;11664;49.774;8.650;2023-09-30T03:58:38;14.10;99.90
22996;DHT22;11664;49.774;8.650;2023-09-30T04:01:04;14.00;99.90
22996;DHT22;11664;49.774;8.650;2023-09-30T04:03:30;13.90;99.90
22996;DHT22;11664;49.774;8.650;2023-09-30T04:05:58;13.90;99.90
22996;DHT22;11664;49.774;8.650;2023-09-30T04:08:24;13.90;99.90
22996;DHT22;11664;49.774;8.650;2023-09-30T04:10:50;13.80;99.90
22996;DHT22;11664;49.774;8.650;2023-09-30T04:13:15;13.80;99.90
22996;DHT22;11664;49.774;8.650;2023-09-30T04:15:42;13.70;99.90
22996;DHT22;11664;49.774;8.650;2023-09-30T04:18:10;13.70;99.90
22996;DHT22;11664;49.774;8.650;2023-09-30T04:20:36;13.60;99.90
22996;DHT22;11664;49.774;8.650;2023-09-30T04:23:06;13.50;99.90
22996;DHT22;11664;49.774;8.650;2023-09-30T04:25:32;13.50;99.90
22996;DHT22;11664;49.774;8.650;2023-09-30T04:27:58;13.50;99.90
22996;DHT22;11664;49.774;8.650;2023-09-30T04:30:23;13.60;99.90
22996;DHT22;11664;49.774;8.650;2023-09-30T04:32:49;13.70;99.90
22996;DHT22;11664;49.774;8.650;2023-09-30T04:35:14;13.80;99.90
22996;DHT22;11664;49.774;8.650;2023-09-30T04:37:40;13.60;99.90
22996;DHT22;11664;49.774;8.650;2023-09-30T04:40:07;13.50;99.90
22996;DHT22;11664;49.774;8.650;2023-09-30T04:42:45;13.50;99.90
22996;DHT22;11664;49.774;8.650;2023-09-30T04:45:12;13.50;99.90
22996;DHT22;11664;49.774;8.650;2023-09-30T04:47:38;13.50;99.90
22996;DHT22;11664;49.774;8.650;2023-09-30T04:50:08;13.70;99.90
22996;DHT22;11664;49.774;8.650;2023-09-30T04:52:37;13.60;99.90
22996;DHT22;11664;49.774;8.650;2023-09-30T04:55:04;13.60;99.90
22996;DHT22;11664;49.774;8.650;2023-09-30T04:57:30;13.60;99.90
22996;DHT22;11664;49.774;8.650;2023-09-30T04:59:57;13.60;99.90
22996;DHT22;11664;49.774;8.650;2023-09-30T05:02:23;13.60;99.90
22996;DHT22;11664;49.774;8.650;2023-09-30T05:04:49;13.60;99.90
22996;DHT22;11664;49.774;8.650;2023-09-30T05:07:15;13.80;99.90
22996;DHT22;11664;49.774;8.650;2023-09-30T05:09:40;13.90;99.90
22996;DHT22;11664;49.774;8.650;2023-09-30T05:12:06;13.90;99.90
22996;DHT22;11664;49.774;8.650;2023-09-30T05:14:32;14.00;99.90
22996;DHT22;11664;49.774;8.650;2023-09-30T05:16:58;14.00;99.90
22996;DHT22;11664;49.774;8.650;2023-09-30T05:19:24;14.10;99.90
22996;DHT22;11664;49.774;8.650;2023-09-30T05:21:50;14.30;99.90
22996;DHT22;11664;49.774;8.650;2023-09-30T05:24:16;14.30;99.90
22996;DHT22;11664;49.774;8.650;2023-09-30T05:26:44;14.30;99.90
22996;DHT22;11664;49.774;8.650;2023-09-30T05:29:10;14.30;99.90
22996;DHT22;11664;49.774;8.650;2023-09-30T05:31:36;14.30;99.90
22996;DHT22;11664;49.774;8.650;2023-09-30T05:34:02;14.30;99.90
22996;DHT22;11664;49.774;8.650;2023-09-30T05:36:27;14.30;99.90
22996;DHT22;11664;49.774;8.650;2023-09-30T05:38:54;14.10;99.90
22996;DHT22;11664;49.774;8.650;2023-09-30T05:41:20;14.20;99.90
22996;DHT22;11664;49.774;8.650;2023-09-30T05:43:46;14.10;99.90
22996;DHT22;11664;49.774;8.650;2023-09-30T05:46:12;14.00;99.90
22996;DHT22;11664;49.774;8.650;2023-09-30T05:48:38;13.90;99.90
22996;DHT22;11664;49.774;8.650;2023-09-30T05:51:05;13.90;99.90
22996;DHT22;11664;49.774;8.650;2023-09-30T05:53:31;13.90;99.90
22996;DHT22;11664;49.774;8.650;2023-09-30T05:56:00;13.90;99.90
22996;DHT22;11664;49.774;8.650;2023-09-30T05:58:26;13.90;99.90
22996;DHT22;11664;49.774;8.650;2023-09-30T06:00:54;14.00;99.90
22996;DHT22;11664;49.774;8.650;2023-09-30T06:03:19;14.10;99.90
22996;DHT22;11664;49.774;8.650;2023-09-30T06:05:48;14.20;99.90
22996;DHT22;11664;49.774;8.650;2023-09-30T06:08:14;14.20;99.90
22996;DHT22;11664;49.774;8.650;2023-09-30T06:10:43;14.30;99.90
22996;DHT22;11664;49.774;8.650;2023-09-30T06:13:10;14.30;99.90
22996;DHT22;11664;49.774;8.650;2023-09-30T06:15:42;14.30;99.90
22996;DHT22;11664;49.774;8.650;2023-09-30T06:18:09;14.40;99.90
22996;DHT22;11664;49.774;8.650;2023-09-30T06:20:36;14.40;99.90
22996;DHT22;11664;49.774;8.650;2023-09-30T06:23:02;14.40;99.90
22996;DHT22;11664;49.774;8.650;2023-09-30T06:25:27;14.30;99.90
22996;DHT22;11664;49.774;8.650;2023-09-30T06:27:54;14.30;99.90
22996;DHT22;11664;49.774;8.650;2023-09-30T06:30:22;14.20;99.90
22996;DHT22;11664;49.774;8.650;2023-09-30T06:32:57;14.20;99.90
22996;DHT22;11664;49.774;8.650;2023-09-30T06:35:25;14.20;99.90
22996;DHT22;11664;49.774;8.650;2023-09-30T06:37:51;14.20;99.90
22996;DHT22;11664;49.774;8.650;2023-09-30T06:40:17;14.20;99.90
22996;DHT22;11664;49.774;8.650;2023-09-30T06:42:44;14.20;99.90
22996;DHT22;11664;49.774;8.650;2023-09-30T06:45:09;14.20;99.90
22996;DHT22;11664;49.774;8.650;2023-09-30T06:47:36;14.40;99.90
22996;DHT22;11664;49.774;8.650;2023-09-30T06:50:12;14.40;99.90
22996;DHT22;11664;49.774;8.650;2023-09-30T06:52:41;14.40;99.90
22996;DHT22;11664;49.774;8.650;2023-09-30T06:55:08;14.50;99.90
22996;DHT22;11664;49.774;8.650;2023-09-30T06:57:34;14.50;99.90
22996;DHT22;11664;49.774;8.650;2023-09-30T07:00:01;14.50;99.90
22996;DHT22;11664;49.774;8.650;2023-09-30T07:02:29;14.50;99.90
22996;DHT22;11664;49.774;8.650;2023-09-30T07:04:54;14.50;99.90
22996;DHT22;11664;49.774;8.650;2023-09-30T07:07:20;14.50;99.90
22996;DHT22;11664;49.774;8.650;2023-09-30T07:09:45;14.60;99.90
22996;DHT22;11664;49.774;8.650;2023-09-30T07:12:11;14.60;99.90
22996;DHT22;11664;49.774;8.650;2023-09-30T07:14:37;14.70;99.90
22996;DHT22;11664;49.774;8.650;2023-09-30T07:17:02;14.80;99.90
22996;DHT22;11664;49.774;8.650;2023-09-30T07:19:30;14.90;99.90
22996;DHT22;11664;49.774;8.650;2023-09-30T07:21:56;14.90;99.90
22996;DHT22;11664;49.774;8.650;2023-09-30T07:24:21;15.00;99.90
22996;DHT22;11664;49.774;8.650;2023-09-30T07:26:47;15.10;99.90
22996;DHT22;11664;49.774;8.650;2023-09-30T07:29:12;15.20;99.90
22996;DHT22;11664;49.774;8.650;2023-09-30T07:31:38;15.20;99.90
22996;DHT22;11664;49.774;8.650;2023-09-30T07:34:03;15.20;99.90
22996;DHT22;11664;49.774;8.650;2023-09-30T07:36:29;15.20;99.90
22996;DHT22;11664;49.774;8.650;2023-09-30T07:38:55;15.20;99.90
22996;DHT22;11664;49.774;8.650;2023-09-30T07:41:20;15.30;99.90
22996;DHT22;11664;49.774;8.650;2023-09-30T07:43:46;15.40;99.90
22996;DHT22;11664;49.774;8.650;2023-09-30T07:46:11;15.40;99.90
22996;DHT22;11664;49.774;8.650;2023-09-30T07:48:37;15.50;99.90
22996;DHT22;11664;49.774;8.650;2023-09-30T07:51:05;15.30;99.90
22996;DHT22;11664;49.774;8.650;2023-09-30T07:53:34;15.50;99.90
22996;DHT22;11664;49.774;8.650;2023-09-30T07:56:00;15.50;99.90
22996;DHT22;11664;49.774;8.650;2023-09-30T07:58:25;15.60;99.90
22996;DHT22;11664;49.774;8.650;2023-09-30T08:00:51;15.60;99.90
22996;DHT22;11664;49.774;8.650;2023-09-30T08:03:16;15.60;99.90
22996;DHT22;11664;49.774;8.650;2023-09-30T08:05:42;15.60;99.90
22996;DHT22;11664;49.774;8.650;2023-09-30T08:08:08;15.60;99.90
22996;DHT22;11664;49.774;8.650;2023-09-30T08:10:33;15.70;99.90
22996;DHT22;11664;49.774;8.650;2023-09-30T08:13:00;15.70;99.90
22996;DHT22;11664;49.774;8.650;2023-09-30T08:15:28;15.80;99.90
22996;DHT22;11664;49.774;8.650;2023-09-30T08:17:53;15.80;99.90
22996;DHT22;11664;49.774;8.650;2023-09-30T08:20:19;15.90;99.90
22996;DHT22;11664;49.774;8.650;2023-09-30T08:22:44;15.90;99.90
22996;DHT22;11664;49.774;8.650;2023-09-30T08:25:10;16.00;99.90
22996;DHT22;11664;49.774;8.650;2023-09-30T08:27:37;16.00;99.90
22996;DHT22;11664;49.774;8.650;2023-09-30T08:30:03;16.00;99.90
22996;DHT22;11664;49.774;8.650;2023-09-30T08:32:35;16.10;99.90
22996;DHT22;11664;49.774;8.650;2023-09-30T08:35:02;16.10;99.90
22996;DHT22;11664;49.774;8.650;2023-09-30T08:37:28;16.20;99.90
22996;DHT22;11664;49.774;8.650;2023-09-30T08:39:55;16.30;99.90
22996;DHT22;11664;49.774;8.650;2023-09-30T08:42:22;16.40;99.90
22996;DHT22;11664;49.774;8.650;2023-09-30T08:44:51;16.20;99.90
22996;DHT22;11664;49.774;8.650;2023-09-30T08:47:17;16.40;99.90
22996;DHT22;11664;49.774;8.650;2023-09-30T08:49:43;16.60;99.90
22996;DHT22;11664;49.774;8.650;2023-09-30T08:52:10;16.60;99.90
22996;DHT22;11664;49.774;8.650;2023-09-30T08:54:36;16.70;99.90
22996;DHT22;11664;49.774;8.650;2023-09-30T08:57:03;16.80;99.90
22996;DHT22;11664;49.774;8.650;2023-09-30T08:59:31;16.90;99.90
22996;DHT22;11664;49.774;8.650;2023-09-30T09:01:57;17.00;99.90
22996;DHT22;11664;49.774;8.650;2023-09-30T09:04:24;17.00;99.90
22996;DHT22;11664;49.774;8.650;2023-09-30T09:06:49;17.10;99.90
22996;DHT22;11664;49.774;8.650;2023-09-30T09:09:18;17.10;99.90
22996;DHT22;11664;49.774;8.650;2023-09-30T09:11:45;17.20;99.90
22996;DHT22;11664;49.774;8.650;2023-09-30T09:14:11;17.20;99.90
22996;DHT22;11664;49.774;8.650;2023-09-30T09:16:37;17.00;99.90
22996;DHT22;11664;49.774;8.650;2023-09-30T09:19:13;16.90;99.90
22996;DHT22;11664;49.774;8.650;2023-09-30T09:21:53;16.90;99.90
22996;DHT22;11664;49.774;8.650;2023-09-30T09:24:35;16.80;99.90
22996;DHT22;11664;49.774;8.650;2023-09-30T09:27:12;17.00;99.90
22996;DHT22;11664;49.774;8.650;2023-09-30T09:29:39;17.20;99.90
22996;DHT22;11664;49.774;8.650;2023-09-30T09:32:14;17.10;99.90
22996;DHT22;11664;49.774;8.650;2023-09-30T09:34:42;17.30;99.90
22996;DHT22;11664;49.774;8.650;2023-09-30T09:37:18;17.40;99.90
22996;DHT22;11664;49.774;8.650;2023-09-30T09:39:51;17.60;99.90
22996;DHT22;11664;49.774;8.650;2023-09-30T09:42:31;17.30;99.90
22996;DHT22;11664;49.774;8.650;2023-09-30T09:45:04;17.50;99.90
22996;DHT22;11664;49.774;8.650;2023-09-30T09:47:32;17.60;99.90
22996;DHT22;11664;49.774;8.650;2023-09-30T09:49:58;17.50;99.90
22996;DHT22;11664;49.774;8.650;2023-09-30T09:52:25;17.50;99.90
22996;DHT22;11664;49.774;8.650;2023-09-30T09:54:52;17.70;99.90
22996;DHT22;11664;49.774;8.650;2023-09-30T09:57:19;17.70;99.90
22996;DHT22;11664;49.774;8.650;2023-09-30T09:59:45;18.00;99.90
22996;DHT22;11664;49.774;8.650;2023-09-30T10:02:15;18.10;99.90
22996;DHT22;11664;49.774;8.650;2023-09-30T10:04:42;18.00;99.90
22996;DHT22;11664;49.774;8.650;2023-09-30T10:07:12;18.00;99.90
22996;DHT22;11664;49.774;8.650;2023-09-30T10:09:43;18.20;99.90
22996;DHT22;11664;49.774;8.650;2023-09-30T10:12:11;18.20;99.90
22996;DHT22;11664;49.774;8.650;2023-09-30T10:14:37;18.20;99.90
22996;DHT22;11664;49.774;8.650;2023-09-30T10:17:03;18.40;99.90
22996;DHT22;11664;49.774;8.650;2023-09-30T10:19:29;18.30;99.90
22996;DHT22;11664;49.774;8.650;2023-09-30T10:24:45;18.40;99.90
22996;DHT22;11664;49.774;8.650;2023-09-30T10:35:20;19.10;99.90
22996;DHT22;11664;49.774;8.650;2023-09-30T10:37:46;18.90;99.90
22996;DHT22;11664;49.774;8.650;2023-09-30T10:40:29;18.60;99.90
22996;DHT22;11664;49.774;8.650;2023-09-30T10:42:55;18.80;99.90
22996;DHT22;11664;49.774;8.650;2023-09-30T10:50:52;19.10;99.90
22996;DHT22;11664;49.774;8.650;2023-09-30T10:53:18;18.70;99.90
22996;DHT22;11664;49.774;8.650;2023-09-30T10:55:45;19.10;99.90
22996;DHT22;11664;49.774;8.650;2023-09-30T10:58:12;19.50;99.90
22996;DHT22;11664;49.774;8.650;2023-09-30T11:00:38;19.70;99.90
22996;DHT22;11664;49.774;8.650;2023-09-30T11:03:04;19.30;99.90
22996;DHT22;11664;49.774;8.650;2023-09-30T11:05:31;19.10;99.90
22996;DHT22;11664;49.774;8.650;2023-09-30T11:08:02;19.60;99.90
22996;DHT22;11664;49.774;8.650;2023-09-30T11:10:29;19.40;99.90
22996;DHT22;11664;49.774;8.650;2023-09-30T11:12:58;19.30;99.90
22996;DHT22;11664;49.774;8.650;2023-09-30T11:15:24;19.40;99.90
22996;DHT22;11664;49.774;8.650;2023-09-30T11:17:52;19.80;99.90
22996;DHT22;11664;49.774;8.650;2023-09-30T11:20:17;19.40;99.90
22996;DHT22;11664;49.774;8.650;2023-09-30T11:22:45;19.80;99.90
22996;DHT22;11664;49.774;8.650;2023-09-30T11:25:17;20.10;99.90
22996;DHT22;11664;49.774;8.650;2023-09-30T11:27:43;19.80;99.90
22996;DHT22;11664;49.774;8.650;2023-09-30T11:30:11;19.90;99.90
22996;DHT22;11664;49.774;8.650;2023-09-30T11:32:37;20.00;99.90
22996;DHT22;11664;49.774;8.650;2023-09-30T11:35:10;19.80;99.90
22996;DHT22;11664;49.774;8.650;2023-09-30T11:37:36;19.70;99.90
22996;DHT22;11664;49.774;8.650;2023-09-30T11:40:13;19.80;99.90
22996;DHT22;11664;49.774;8.650;2023-09-30T11:42:41;20.40;99.90
22996;DHT22;11664;49.774;8.650;2023-09-30T11:45:22;20.10;99.90
22996;DHT22;11664;49.774;8.650;2023-09-30T11:47:48;20.70;99.90
22996;DHT22;11664;49.774;8.650;2023-09-30T11:50:13;20.70;99.90
22996;DHT22;11664;49.774;8.650;2023-09-30T11:52:39;20.50;99.90
22996;DHT22;11664;49.774;8.650;2023-09-30T11:55:09;20.10;99.90
22996;DHT22;11664;49.774;8.650;2023-09-30T11:57:38;20.40;99.90
22996;DHT22;11664;49.774;8.650;2023-09-30T12:00:04;20.80;99.90
22996;DHT22;11664;49.774;8.650;2023-09-30T12:02:38;21.00;99.90
22996;DHT22;11664;49.774;8.650;2023-09-30T12:05:06;20.90;99.90
22996;DHT22;11664;49.774;8.650;2023-09-30T12:07:37;20.80;99.90
22996;DHT22;11664;49.774;8.650;2023-09-30T12:10:03;20.20;99.90
22996;DHT22;11664;49.774;8.650;2023-09-30T12:12:28;20.70;99.90
22996;DHT22;11664;49.774;8.650;2023-09-30T12:14:54;21.20;99.90
22996;DHT22;11664;49.774;8.650;2023-09-30T12:17:20;20.40;99.90
22996;DHT22;11664;49.774;8.650;2023-09-30T12:19:47;21.00;99.90
22996;DHT22;11664;49.774;8.650;2023-09-30T12:22:13;21.40;99.90
22996;DHT22;11664;49.774;8.650;2023-09-30T12:24:39;21.50;99.90
22996;DHT22;11664;49.774;8.650;2023-09-30T12:27:05;21.90;99.90
22996;DHT22;11664;49.774;8.650;2023-09-30T12:29:31;21.80;99.90
22996;DHT22;11664;49.774;8.650;2023-09-30T12:31:57;21.90;99.90
22996;DHT22;11664;49.774;8.650;2023-09-30T12:34:22;21.80;99.90
22996;DHT22;11664;49.774;8.650;2023-09-30T12:36:51;21.60;99.90
22996;DHT22;11664;49.774;8.650;2023-09-30T12:39:17;21.20;99.90
22996;DHT22;11664;49.774;8.650;2023-09-30T12:41:46;21.80;99.90
22996;DHT22;11664;49.774;8.650;2023-09-30T12:44:12;22.30;99.90
22996;DHT22;11664;49.774;8.650;2023-09-30T12:46:38;21.80;99.90
22996;DHT22;11664;49.774;8.650;2023-09-30T12:49:08;21.10;99.90
22996;DHT22;11664;49.774;8.650;2023-09-30T12:51:34;20.80;99.90
22996;DHT22;11664;49.774;8.650;2023-09-30T12:54:00;21.80;99.90
22996;DHT22;11664;49.774;8.650;2023-09-30T12:56:26;21.40;99.90
22996;DHT22;11664;49.774;8.650;2023-09-30T12:58:54;21.90;99.90
22996;DHT22;11664;49.774;8.650;2023-09-30T13:01:20;22.20;99.90
22996;DHT22;11664;49.774;8.650;2023-09-30T13:03:47;22.10;99.90
22996;DHT22;11664;49.774;8.650;2023-09-30T13:06:12;22.90;99.90
22996;DHT22;11664;49.774;8.650;2023-09-30T13:08:39;23.70;99.90
22996;DHT22;11664;49.774;8.650;2023-09-30T13:11:04;23.80;99.90
22996;DHT22;11664;49.774;8.650;2023-09-30T13:13:31;23.40;99.10
22996;DHT22;11664;49.774;8.650;2023-09-30T13:15:59;23.90;99.80
22996;DHT22;11664;49.774;8.650;2023-09-30T13:18:24;23.60;97.20
22996;DHT22;11664;49.774;8.650;2023-09-30T13:20:50;23.80;97.30
22996;DHT22;11664;49.774;8.650;2023-09-30T13:23:17;24.10;96.20
22996;DHT22;11664;49.774;8.650;2023-09-30T13:25:43;24.20;95.00
22996;DHT22;11664;49.774;8.650;2023-09-30T13:28:09;24.50;95.30
22996;DHT22;11664;49.774;8.650;2023-09-30T13:30:34;23.10;96.60
22996;DHT22;11664;49.774;8.650;2023-09-30T13:33:01;22.00;98.30
22996;DHT22;11664;49.774;8.650;2023-09-30T13:35:26;22.90;97.50
22996;DHT22;11664;49.774;8.650;2023-09-30T13:37:52;23.10;95.50
22996;DHT22;11664;49.774;8.650;2023-09-30T13:40:17;24.50;95.60
22996;DHT22;11664;49.774;8.650;2023-09-30T13:42:43;22.60;95.30
22996;DHT22;11664;49.774;8.650;2023-09-30T13:45:10;22.60;96.90
22996;DHT22;11664;49.774;8.650;2023-09-30T13:47:36;23.80;96.40
22996;DHT22;11664;49.774;8.650;2023-09-30T13:50:02;24.50;96.00
22996;DHT22;11664;49.774;8.650;2023-09-30T13:52:29;24.80;95.20
22996;DHT22;11664;49.774;8.650;2023-09-30T13:54:55;23.70;94.30
22996;DHT22;11664;49.774;8.650;2023-09-30T13:57:21;23.80;94.50
22996;DHT22;11664;49.774;8.650;2023-09-30T13:59:46;23.80;94.90
22996;DHT22;11664;49.774;8.650;2023-09-30T14:02:12;23.40;95.50
22996;DHT22;11664;49.774;8.650;2023-09-30T14:04:37;22.40;97.50
22996;DHT22;11664;49.774;8.650;2023-09-30T14:07:04;21.90;98.00
22996;DHT22;11664;49.774;8.650;2023-09-30T14:09:31;23.20;97.00
22996;DHT22;11664;49.774;8.650;2023-09-30T14:11:56;23.40;96.90
22996;DHT22;11664;49.774;8.650;2023-09-30T14:14:24;23.10;96.10
22996;DHT22;11664;49.774;8.650;2023-09-30T14:16:50;23.50;96.30
22996;DHT22;11664;49.774;8.650;2023-09-30T14:19:15;24.10;95.70
22996;DHT22;11664;49.774;8.650;2023-09-30T14:21:41;24.20;95.30
22996;DHT22;11664;49.774;8.650;2023-09-30T14:24:07;24.20;94.90
22996;DHT22;11664;49.774;8.650;2023-09-30T14:26:33;23.90;96.20
22996;DHT22;11664;49.774;8.650;2023-09-30T14:28:59;24.20;95.70
22996;DHT22;11664;49.774;8.650;2023-09-30T14:31:25;24.00;96.40
22996;DHT22;11664;49.774;8.650;2023-09-30T14:33:50;23.70;95.80
22996;DHT22;11664;49.774;8.650;2023-09-30T14:36:17;23.70;95.60
22996;DHT22;11664;49.774;8.650;2023-09-30T14:38:43;23.70;95.80
22996;DHT22;11664;49.774;8.650;2023-09-30T14:41:10;23.40;95.50
22996;DHT22;11664;49.774;8.650;2023-09-30T14:43:37;23.10;97.50
22996;DHT22;11664;49.774;8.650;2023-09-30T14:46:03;22.80;96.90
22996;DHT22;11664;49.774;8.650;2023-09-30T14:48:29;22.10;97.70
22996;DHT22;11664;49.774;8.650;2023-09-30T14:50:55;22.50;98.10
22996;DHT22;11664;49.774;8.650;2023-09-30T14:53:21;22.20;97.70
22996;DHT22;11664;49.774;8.650;2023-09-30T14:55:46;22.30;97.60
22996;DHT22;11664;49.774;8.650;2023-09-30T14:58:12;21.70;98.60
22996;DHT22;11664;49.774;8.650;2023-09-30T15:00:37;20.90;99.90
22996;DHT22;11664;49.774;8.650;2023-09-30T15:03:03;20.60;99.90
22996;DHT22;11664;49.774;8.650;2023-09-30T15:05:31;20.80;99.90
22996;DHT22;11664;49.774;8.650;2023-09-30T15:07:56;20.80;99.90
22996;DHT22;11664;49.774;8.650;2023-09-30T15:10:22;20.70;99.90
22996;DHT22;11664;49.774;8.650;2023-09-30T15:12:47;20.60;99.90
22996;DHT22;11664;49.774;8.650;2023-09-30T15:15:13;20.50;99.90
22996;DHT22;11664;49.774;8.650;2023-09-30T15:17:39;20.40;99.90
22996;DHT22;11664;49.774;8.650;2023-09-30T15:20:05;20.40;99.90
22996;DHT22;11664;49.774;8.650;2023-09-30T15:22:32;20.20;99.90
22996;DHT22;11664;49.774;8.650;2023-09-30T15:24:57;20.10;99.90
22996;DHT22;11664;49.774;8.650;2023-09-30T15:27:23;19.90;99.90
22996;DHT22;11664;49.774;8.650;2023-09-30T15:29:50;19.90;99.90
22996;DHT22;11664;49.774;8.650;2023-09-30T15:32:15;19.80;99.90
22996;DHT22;11664;49.774;8.650;2023-09-30T15:34:42;19.70;99.90
22996;DHT22;11664;49.774;8.650;2023-09-30T15:37:08;19.70;99.90
22996;DHT22;11664;49.774;8.650;2023-09-30T15:39:39;19.70;99.90
22996;DHT22;11664;49.774;8.650;2023-09-30T15:42:05;19.70;99.90
22996;DHT22;11664;49.774;8.650;2023-09-30T15:44:30;19.70;99.90